createdAt,value
2024-01-09T00:00:09.372Z,78.5
2024-01-09T00:01:11.578Z,78.3
2024-01-09T00:02:13.658Z,78.3
2024-01-09T00:03:15.735Z,78.2
2024-01-09T00:04:17.357Z,78.1
2024-01-09T00:05:19.509Z,78.4
2024-01-09T00:06:21.888Z,78.6
2024-01-09T00:07:23.324Z,78.8
2024-01-09T00:08:25.440Z,78.8
2024-01-09T00:09:27.355Z,78.7
2024-01-09T00:10:29.400Z,79
2024-01-09T00:11:31.525Z,79.1
2024-01-09T00:12:33.314Z,78.9
2024-01-09T00:13:35.327Z,79
2024-01-09T00:14:37.692Z,79
2024-01-09T00:15:39.330Z,79.1
2024-01-09T00:16:41.355Z,79
2024-01-09T00:17:43.667Z,79
2024-01-09T00:18:45.642Z,78.9
2024-01-09T00:19:47.660Z,79.1
2024-01-09T00:20:49.487Z,79
2024-01-09T00:21:51.309Z,79.2
2024-01-09T00:22:53.316Z,79.3
2024-01-09T00:23:55.571Z,79.5
2024-01-09T00:24:57.304Z,79.5
2024-01-09T00:25:59.352Z,79.6
2024-01-09T00:27:01.751Z,79.7
2024-01-09T00:28:03.303Z,79.7
2024-01-09T00:29:05.520Z,79.8
2024-01-09T00:30:07.602Z,79.7
2024-01-09T00:31:09.645Z,79.8
2024-01-09T00:32:11.708Z,79.5
2024-01-09T00:33:13.833Z,79.8
2024-01-09T00:34:15.510Z,80.1
2024-01-09T00:35:17.580Z,80.3
2024-01-09T00:36:19.290Z,80.2
2024-01-09T00:37:21.342Z,80.1
2024-01-09T00:38:23.734Z,80.1
2024-01-09T00:39:25.273Z,80
2024-01-09T00:40:27.280Z,80
2024-01-09T00:41:29.592Z,80.1
2024-01-09T00:42:31.614Z,80.2
2024-01-09T00:43:33.290Z,80.3
2024-01-09T00:44:35.424Z,80.1
2024-01-09T00:45:39.930Z,80.1
2024-01-09T00:46:40.502Z,80.1
2024-01-09T00:47:42.633Z,80.2
2024-01-09T00:48:44.728Z,80.1
2024-01-09T00:49:46.694Z,80
2024-01-09T00:50:48.368Z,80.2
2024-01-09T00:51:50.268Z,80.1
2024-01-09T00:52:52.220Z,80
2024-01-09T00:53:54.535Z,79.8
2024-01-09T00:54:56.214Z,80
2024-01-09T00:55:58.329Z,79.8
2024-01-09T00:57:00.301Z,79.8
2024-01-09T00:58:02.437Z,79.8
2024-01-09T00:59:04.219Z,79.8
2024-01-09T01:00:06.546Z,79.8
2024-01-09T01:01:08.611Z,79.9
2024-01-09T01:02:10.435Z,79.6
2024-01-09T01:03:12.441Z,79.7
2024-01-09T01:04:14.483Z,79.6
2024-01-09T01:05:16.644Z,79.7
2024-01-09T01:06:18.604Z,79.6
2024-01-09T01:07:20.195Z,79.9
2024-01-09T01:08:22.422Z,79.9
2024-01-09T01:09:24.205Z,79.6
2024-01-09T01:10:26.232Z,79.6
2024-01-09T01:11:28.349Z,79.9
2024-01-09T01:12:30.230Z,79.7
2024-01-09T01:13:32.333Z,79.5
2024-01-09T01:14:34.235Z,79.7
2024-01-09T01:15:36.233Z,79.8
2024-01-09T01:16:38.220Z,79.7
2024-01-09T01:17:40.639Z,79.7
2024-01-09T01:18:42.316Z,79.9
2024-01-09T01:19:44.379Z,80.1
2024-01-09T01:20:46.435Z,80
2024-01-09T01:21:48.284Z,80
2024-01-09T01:22:50.170Z,80.1
2024-01-09T01:23:52.657Z,80.1
2024-01-09T01:24:54.200Z,80.4
2024-01-09T01:25:56.179Z,80.3
2024-01-09T01:26:58.333Z,80.3
2024-01-09T01:28:00.509Z,80.2
2024-01-09T01:29:02.576Z,80.1
2024-01-09T01:30:04.641Z,80.1
2024-01-09T01:31:06.368Z,80.4
2024-01-09T01:32:08.171Z,80.4
2024-01-09T01:33:10.947Z,80.4
2024-01-09T01:34:12.563Z,80.4
2024-01-09T01:35:14.289Z,80.3
2024-01-09T01:36:16.160Z,80.1
2024-01-09T01:37:18.158Z,80.2
2024-01-09T01:38:20.491Z,80.1
2024-01-09T01:39:22.195Z,80.2
2024-01-09T01:40:24.169Z,80.3
2024-01-09T01:41:26.306Z,80.6
2024-01-09T01:42:28.156Z,80.6
2024-01-09T01:43:30.422Z,80.4
2024-01-09T01:44:32.505Z,80.3
2024-01-09T01:45:34.155Z,80.4
2024-01-09T01:46:36.186Z,80.4
2024-01-09T01:47:38.396Z,80.6
2024-01-09T01:48:40.816Z,80.3
2024-01-09T01:49:42.149Z,80.5
2024-01-09T01:50:44.497Z,80.5
2024-01-09T01:51:46.133Z,80.5
2024-01-09T01:52:48.273Z,80.6
2024-01-09T01:53:50.693Z,81.1
2024-01-09T01:54:52.140Z,80.9
2024-01-09T01:55:54.131Z,81.2
2024-01-09T01:56:56.513Z,81
2024-01-09T01:57:58.187Z,80.7
2024-01-09T01:59:00.165Z,80.6
2024-01-09T02:00:02.372Z,80.6
2024-01-09T02:01:04.415Z,80.7
2024-01-09T02:02:06.500Z,81
2024-01-09T02:03:08.118Z,81.1
2024-01-09T02:04:10.266Z,81.5
2024-01-09T02:05:12.369Z,81.4
2024-01-09T02:06:14.462Z,81.5
2024-01-09T02:07:16.114Z,81.8
2024-01-09T02:08:18.205Z,82
2024-01-09T02:09:20.102Z,81.8
2024-01-09T02:10:22.599Z,81.8
2024-01-09T02:11:24.183Z,82.2
2024-01-09T02:12:26.110Z,82.5
2024-01-09T02:13:28.452Z,82.4
2024-01-09T02:14:30.553Z,82.4
2024-01-09T02:15:32.197Z,82.7
2024-01-09T02:16:34.128Z,82.6
2024-01-09T02:17:36.418Z,82.7
2024-01-09T02:18:38.137Z,82.8
2024-01-09T02:19:40.585Z,82.9
2024-01-09T02:20:42.539Z,83.3
2024-01-09T02:21:44.088Z,83.6
2024-01-09T02:22:46.328Z,83.8
2024-01-09T02:23:48.393Z,84.1
2024-01-09T02:24:50.159Z,84.3
2024-01-09T02:25:52.199Z,84.5
2024-01-09T02:27:05.767Z,84.5
2024-01-09T02:28:06.807Z,84.4
2024-01-09T02:29:08.623Z,84.4
2024-01-09T02:30:10.718Z,84.2
2024-01-09T02:31:12.599Z,84
2024-01-09T02:32:14.488Z,84
2024-01-09T02:33:16.871Z,84.1
2024-01-09T02:34:18.817Z,84.2
2024-01-09T02:35:20.639Z,84.3
2024-01-09T02:36:22.460Z,84
2024-01-09T02:37:24.482Z,83.8
2024-01-09T02:38:26.708Z,83.8
2024-01-09T02:39:28.493Z,83.9
2024-01-09T02:40:30.478Z,84.1
2024-01-09T02:41:32.943Z,84.3
2024-01-09T02:42:34.485Z,84.2
2024-01-09T02:43:36.475Z,84.1
2024-01-09T02:44:38.745Z,83.8
2024-01-09T02:45:40.478Z,83.6
2024-01-09T02:46:42.504Z,83.4
2024-01-09T02:47:44.929Z,83.2
2024-01-09T02:48:47.001Z,83.1
2024-01-09T02:49:48.677Z,82.8
2024-01-09T02:50:50.764Z,82.8
2024-01-09T02:51:52.455Z,82.9
2024-01-09T02:52:54.528Z,83.2
2024-01-09T02:53:56.613Z,83.2
2024-01-09T02:54:58.460Z,83.2
2024-01-09T02:56:00.451Z,83.1
2024-01-09T02:57:02.469Z,83.4
2024-01-09T02:58:04.479Z,83.4
2024-01-09T02:59:06.436Z,83.3
2024-01-09T03:00:08.432Z,83.5
2024-01-09T03:01:10.498Z,83.6
2024-01-09T03:02:12.751Z,83.7
2024-01-09T03:03:14.832Z,83.5
2024-01-09T03:04:16.427Z,83.7
2024-01-09T03:05:19.000Z,83.9
2024-01-09T03:06:21.062Z,84.2
2024-01-09T03:07:22.789Z,84.5
2024-01-09T03:08:24.826Z,84.5
2024-01-09T03:09:26.426Z,84.4
2024-01-09T03:10:28.438Z,84.6
2024-01-09T03:11:30.650Z,84.8
2024-01-09T03:12:32.458Z,84.7
2024-01-09T03:13:34.433Z,84.7
2024-01-09T03:14:36.442Z,84.6
2024-01-09T03:15:38.417Z,84.7
2024-01-09T03:16:40.475Z,84.5
2024-01-09T03:17:43.099Z,84.2
2024-01-09T03:18:44.742Z,84.5
2024-01-09T03:19:46.428Z,84.7
2024-01-09T03:20:48.796Z,84.6
2024-01-09T03:21:50.450Z,84.6
2024-01-09T03:22:52.439Z,84.5
2024-01-09T03:23:54.677Z,84.6
2024-01-09T03:24:56.411Z,84.7
2024-01-09T03:25:58.440Z,84.6
2024-01-09T03:27:00.433Z,84.7
2024-01-09T03:28:02.407Z,84.8
2024-01-09T03:29:04.603Z,85
2024-01-09T03:30:06.697Z,85
2024-01-09T03:31:08.727Z,84.8
2024-01-09T03:32:10.687Z,84.7
2024-01-09T03:33:12.944Z,84.5
2024-01-09T03:34:14.608Z,84.5
2024-01-09T03:35:16.650Z,84.8
2024-01-09T03:36:18.411Z,85
2024-01-09T03:37:20.393Z,85.2
2024-01-09T03:38:22.822Z,85.2
2024-01-09T03:39:24.429Z,85.2
2024-01-09T03:40:26.431Z,85.3
2024-01-09T03:41:28.427Z,85.4
2024-01-09T03:42:30.381Z,85.2
2024-01-09T03:43:32.379Z,85.3
2024-01-09T03:44:34.523Z,85
2024-01-09T03:45:36.387Z,84.9
2024-01-09T03:46:38.389Z,84.8
2024-01-09T03:47:40.766Z,84.7
2024-01-09T03:48:42.802Z,84.4
2024-01-09T03:49:44.402Z,84
2024-01-09T03:50:46.917Z,83.5
2024-01-09T03:51:48.395Z,82.7
2024-01-09T03:52:50.642Z,82.5
2024-01-09T03:53:52.393Z,82.2
2024-01-09T03:54:54.373Z,81.9
2024-01-09T03:55:56.377Z,81.7
2024-01-09T03:56:58.362Z,81.5
2024-01-09T03:58:00.412Z,81.5
2024-01-09T03:59:02.375Z,81.2
2024-01-09T04:00:04.368Z,81.4
2024-01-09T04:01:06.485Z,81.2
2024-01-09T04:02:08.564Z,81.2
2024-01-09T04:03:10.663Z,81.2
2024-01-09T04:04:12.636Z,80.7
2024-01-09T04:05:14.756Z,80.7
2024-01-09T04:06:16.778Z,80.8
2024-01-09T04:07:18.352Z,81.1
2024-01-09T04:08:20.565Z,81.2
2024-01-09T04:09:22.349Z,81.5
2024-01-09T04:10:24.345Z,81.2
2024-01-09T04:11:26.451Z,81.1
2024-01-09T04:12:28.460Z,80.9
2024-01-09T04:13:30.341Z,80.7
2024-01-09T04:14:37.319Z,80.7
2024-01-09T04:15:38.249Z,80.8
2024-01-09T04:16:40.293Z,80.5
2024-01-09T04:17:42.819Z,80.4
2024-01-09T04:18:44.569Z,80
2024-01-09T04:19:46.604Z,80.3
2024-01-09T04:20:48.606Z,80.3
2024-01-09T04:21:50.274Z,80.4
2024-01-09T04:22:52.251Z,80.7
2024-01-09T04:23:54.566Z,80.7
2024-01-09T04:24:56.245Z,81.1
2024-01-09T04:25:58.260Z,81.3
2024-01-09T04:27:00.606Z,81.5
2024-01-09T04:28:02.365Z,81.5
2024-01-09T04:29:04.236Z,81.5
2024-01-09T04:30:06.502Z,81.8
2024-01-09T04:31:08.533Z,81.9
2024-01-09T04:32:10.620Z,82
2024-01-09T04:33:12.722Z,81.9
2024-01-09T04:34:14.798Z,81.9
2024-01-09T04:35:16.471Z,81.9
2024-01-09T04:36:18.588Z,81.6
2024-01-09T04:37:20.217Z,81.4
2024-01-09T04:38:22.326Z,81.3
2024-01-09T04:39:24.235Z,81.5
2024-01-09T04:40:26.262Z,81.5
2024-01-09T04:41:28.534Z,81.6
2024-01-09T04:42:30.209Z,81.5
2024-01-09T04:43:32.216Z,81.6
2024-01-09T04:44:34.648Z,81.7
2024-01-09T04:45:36.398Z,81.8
2024-01-09T04:46:38.223Z,81.9
2024-01-09T04:47:40.562Z,82.4
2024-01-09T04:48:42.696Z,82.7
2024-01-09T04:49:44.271Z,83.2
2024-01-09T04:50:46.359Z,83.1
2024-01-09T04:51:48.217Z,83.1
2024-01-09T04:52:50.195Z,83
2024-01-09T04:53:52.583Z,82.8
2024-01-09T04:54:54.220Z,82.7
2024-01-09T04:55:56.198Z,82.7
2024-01-09T04:57:00.300Z,82.4
2024-01-09T04:58:00.779Z,82.2
2024-01-09T04:59:02.806Z,81.9
2024-01-09T05:00:04.778Z,81.6
2024-01-09T05:01:06.929Z,81.1
2024-01-09T05:02:08.935Z,80.9
2024-01-09T05:03:11.172Z,80.5
2024-01-09T05:04:13.059Z,80.5
2024-01-09T05:05:15.182Z,80.6
2024-01-09T05:06:17.313Z,80.6
2024-01-09T05:07:18.751Z,80.8
2024-01-09T05:08:20.983Z,80.6
2024-01-09T05:09:23.021Z,80.5
2024-01-09T05:10:24.742Z,80.7
2024-01-09T05:11:26.832Z,80.6
2024-01-09T05:12:28.751Z,80.8
2024-01-09T05:13:30.768Z,80.8
2024-01-09T05:14:32.791Z,80.8
2024-01-09T05:15:34.744Z,80.9
2024-01-09T05:16:36.740Z,81
2024-01-09T05:17:39.244Z,80.8
2024-01-09T05:18:40.997Z,80.9
2024-01-09T05:19:42.729Z,80.3
2024-01-09T05:20:45.035Z,80.1
2024-01-09T05:21:47.065Z,79
2024-01-09T05:22:48.768Z,79.1
2024-01-09T05:23:51.027Z,78.8
2024-01-09T05:24:52.725Z,78.5
2024-01-09T05:25:54.987Z,78.8
2024-01-09T05:26:57.054Z,78.7
2024-01-09T05:27:58.760Z,78.4
2024-01-09T05:29:00.735Z,78.6
2024-01-09T05:30:02.747Z,78.2
2024-01-09T05:31:04.729Z,78
2024-01-09T05:32:06.758Z,77.4
2024-01-09T05:33:09.200Z,77.2
2024-01-09T05:34:11.254Z,76.9
2024-01-09T05:35:12.874Z,75.6
2024-01-09T05:36:14.758Z,76.1
2024-01-09T05:37:17.240Z,76
2024-01-09T05:38:20.020Z,76.1
2024-01-09T05:39:20.709Z,75.6
2024-01-09T05:40:22.713Z,76
2024-01-09T05:41:24.959Z,75.7
2024-01-09T05:42:26.703Z,75.8
2024-01-09T05:43:28.693Z,74.9
2024-01-09T05:44:30.727Z,74.8
2024-01-09T05:45:32.737Z,75.3
2024-01-09T05:46:34.739Z,74.9
2024-01-09T05:47:36.963Z,74.7
2024-01-09T05:48:38.989Z,74.9
2024-01-09T05:49:41.029Z,74.7
2024-01-09T05:50:43.095Z,74
2024-01-09T05:51:44.717Z,74.4
2024-01-09T05:52:46.886Z,73.4
2024-01-09T05:53:52.142Z,74
2024-01-09T05:54:53.314Z,74.1
2024-01-09T05:55:54.576Z,73.7
2024-01-09T05:56:56.985Z,73.4
2024-01-09T05:57:58.587Z,73.5
2024-01-09T05:59:00.569Z,73.9
2024-01-09T06:00:02.853Z,73.9
2024-01-09T06:01:05.506Z,73.6
2024-01-09T06:02:06.717Z,73.6
2024-01-09T06:03:08.997Z,73.6
2024-01-09T06:04:10.836Z,73.2
2024-01-09T06:05:12.839Z,73.3
2024-01-09T06:06:14.900Z,72.4
2024-01-09T06:07:16.574Z,72.5
2024-01-09T06:08:18.966Z,72
2024-01-09T06:09:20.571Z,72.4
2024-01-09T06:10:22.564Z,72.9
2024-01-09T06:11:24.798Z,72.9
2024-01-09T06:12:26.542Z,72.6
2024-01-09T06:13:28.528Z,72
2024-01-09T06:14:30.685Z,72.1
2024-01-09T06:15:32.553Z,71.7
2024-01-09T06:16:34.533Z,71.5
2024-01-09T06:17:36.938Z,71.4
2024-01-09T06:18:38.949Z,71.7
2024-01-09T06:19:40.648Z,70.7
2024-01-09T06:20:42.710Z,70.6
2024-01-09T06:21:44.522Z,70.7
2024-01-09T06:22:46.559Z,70.3
2024-01-09T06:23:49.541Z,70.3
2024-01-09T06:24:50.515Z,70.2
2024-01-09T06:25:52.524Z,69.3
2024-01-09T06:26:54.758Z,69.6
2024-01-09T06:27:56.568Z,69.3
2024-01-09T06:28:58.688Z,69.8
2024-01-09T06:30:00.891Z,69.9
2024-01-09T06:31:02.924Z,69.1
2024-01-09T06:32:04.528Z,69
2024-01-09T06:33:07.515Z,68.7
2024-01-09T06:34:08.886Z,68.8
2024-01-09T06:35:10.865Z,68.7
2024-01-09T06:36:12.578Z,67.9
2024-01-09T06:37:14.525Z,68.2
2024-01-09T06:38:16.735Z,68.2
2024-01-09T06:39:18.526Z,67.3
2024-01-09T06:40:20.494Z,67.8
2024-01-09T06:41:22.571Z,68
2024-01-09T06:42:24.552Z,67.8
2024-01-09T06:43:26.510Z,67.4
2024-01-09T06:44:28.537Z,67.3
2024-01-09T06:45:30.511Z,67.1
2024-01-09T06:46:32.807Z,67.2
2024-01-09T06:47:34.888Z,67
2024-01-09T06:48:37.025Z,66.6
2024-01-09T06:49:38.707Z,66.8
2024-01-09T06:50:40.865Z,67
2024-01-09T06:51:42.518Z,67
2024-01-09T06:52:45.073Z,66.8
2024-01-09T06:53:46.636Z,66.9
2024-01-09T06:54:48.634Z,67
2024-01-09T06:55:50.525Z,67
2024-01-09T06:56:52.804Z,66.9
2024-01-09T06:57:54.485Z,66.6
2024-01-09T06:58:56.474Z,66
2024-01-09T06:59:58.639Z,66.5
2024-01-09T07:01:00.688Z,66.7
2024-01-09T07:02:03.016Z,66.2
2024-01-09T07:03:04.840Z,66.1
2024-01-09T07:04:06.887Z,66.8
2024-01-09T07:05:08.937Z,66.8
2024-01-09T07:06:10.975Z,66.9
2024-01-09T07:07:13.598Z,66.2
2024-01-09T07:08:14.750Z,66.1
2024-01-09T07:09:16.503Z,65.7
2024-01-09T07:10:19.032Z,66.2
2024-01-09T07:11:20.620Z,66.5
2024-01-09T07:12:22.949Z,66.4
2024-01-09T07:13:24.458Z,66.7
2024-01-09T07:14:26.817Z,65.9
2024-01-09T07:15:28.924Z,66.3
2024-01-09T07:16:30.455Z,66.4
2024-01-09T07:17:33.006Z,66.2
2024-01-09T07:18:34.860Z,65.7
2024-01-09T07:19:36.515Z,65
2024-01-09T07:20:38.590Z,65.9
2024-01-09T07:21:40.443Z,66
2024-01-09T07:22:48.225Z,66
2024-01-09T07:23:50.207Z,65.9
2024-01-09T07:24:51.850Z,66
2024-01-09T07:25:53.824Z,65.6
2024-01-09T07:26:56.040Z,65.8
2024-01-09T07:27:57.797Z,66.2
2024-01-09T07:29:00.150Z,66.3
2024-01-09T07:30:02.307Z,65.7
2024-01-09T07:31:04.439Z,66.1
2024-01-09T07:32:05.776Z,66.4
2024-01-09T07:33:08.492Z,67.1
2024-01-09T07:34:10.159Z,68
2024-01-09T07:35:12.169Z,68.7
2024-01-09T07:36:13.805Z,69
2024-01-09T07:37:15.785Z,69.6
2024-01-09T07:38:18.051Z,70.1
2024-01-09T07:39:19.782Z,70.7
2024-01-09T07:40:21.795Z,71
2024-01-09T07:41:24.199Z,71.6
2024-01-09T07:42:25.937Z,71.8
2024-01-09T07:43:27.985Z,71.5
2024-01-09T07:44:30.057Z,72.2
2024-01-09T07:45:32.102Z,71.7
2024-01-09T07:46:33.821Z,71.2
2024-01-09T07:47:36.245Z,71.3
2024-01-09T07:48:38.124Z,71.6
2024-01-09T07:49:40.063Z,72.1
2024-01-09T07:50:41.781Z,72.5
2024-01-09T07:51:43.812Z,73
2024-01-09T07:52:45.838Z,73.7
2024-01-09T07:53:48.246Z,74.2
2024-01-09T07:54:49.761Z,74.6
2024-01-09T07:55:52.469Z,75
2024-01-09T07:56:54.155Z,75.1
2024-01-09T07:57:55.779Z,75.2
2024-01-09T07:58:57.751Z,75.5
2024-01-09T07:59:59.961Z,75.8
2024-01-09T08:01:02.023Z,75.8
2024-01-09T08:02:03.780Z,76.1
2024-01-09T08:03:06.610Z,75.7
2024-01-09T08:04:08.247Z,75.2
2024-01-09T08:05:09.785Z,74.6
2024-01-09T08:06:12.014Z,74.4
2024-01-09T08:07:13.759Z,73.4
2024-01-09T08:08:15.767Z,71.4
2024-01-09T08:09:17.844Z,70.5
2024-01-09T08:10:19.736Z,70.4
2024-01-09T08:11:22.005Z,69.5
2024-01-09T08:12:23.770Z,68.8
2024-01-09T08:13:25.740Z,68.6
2024-01-09T08:14:28.139Z,67.5
2024-01-09T08:15:29.761Z,68
2024-01-09T08:16:31.751Z,67.2
2024-01-09T08:17:34.046Z,66.9
2024-01-09T08:18:36.408Z,66.2
2024-01-09T08:19:38.089Z,66
2024-01-09T08:20:40.179Z,66.2
2024-01-09T08:21:43.396Z,66.4
2024-01-09T08:22:43.924Z,66.1
2024-01-09T08:23:45.738Z,66.5
2024-01-09T08:24:47.745Z,66.1
2024-01-09T08:25:49.750Z,66.5
2024-01-09T08:26:51.914Z,67.4
2024-01-09T08:27:53.739Z,67.8
2024-01-09T08:28:55.706Z,68.4
2024-01-09T08:29:58.057Z,68.9
2024-01-09T08:31:00.067Z,69.4
2024-01-09T08:32:01.765Z,70.4
2024-01-09T08:33:04.061Z,71.1
2024-01-09T08:34:05.996Z,71.9
2024-01-09T08:35:07.966Z,72.2
2024-01-09T08:36:10.037Z,72.6
2024-01-09T08:37:11.846Z,72.8
2024-01-09T08:38:14.130Z,73.2
2024-01-09T08:39:15.950Z,73.8
2024-01-09T08:40:17.932Z,74
2024-01-09T08:41:19.996Z,75
2024-01-09T08:42:21.748Z,75.2
2024-01-09T08:43:23.785Z,75.5
2024-01-09T08:44:26.209Z,75.6
2024-01-09T08:45:27.699Z,75.7
2024-01-09T08:46:29.960Z,76
2024-01-09T08:47:32.095Z,76.2
2024-01-09T08:48:34.217Z,76.4
2024-01-09T08:49:36.087Z,76.8
2024-01-09T08:50:37.898Z,77.1
2024-01-09T08:51:40.002Z,77.3
2024-01-09T08:52:41.698Z,77.6
2024-01-09T08:53:43.848Z,77.6
2024-01-09T08:54:45.707Z,77.4
2024-01-09T08:55:47.853Z,77.3
2024-01-09T08:56:49.915Z,77.6
2024-01-09T08:57:51.733Z,77.7
2024-01-09T08:58:54.008Z,78.1
2024-01-09T08:59:59.596Z,77.9
2024-01-09T09:01:00.592Z,78.1
2024-01-09T09:02:02.318Z,78
2024-01-09T09:03:04.735Z,77.2
2024-01-09T09:04:06.856Z,76.4
2024-01-09T09:05:08.204Z,74.5
2024-01-09T09:06:10.593Z,72.9
2024-01-09T09:07:12.310Z,72.5
2024-01-09T09:08:14.371Z,71.9
2024-01-09T09:11:28.524Z,70.6
2024-01-09T09:12:30.266Z,69.6
2024-01-09T09:13:32.275Z,69.6
2024-01-09T09:15:40.431Z,68.6
2024-01-09T09:16:44.302Z,68.7
2024-01-09T09:17:44.843Z,68.9
2024-01-09T09:18:47.283Z,67.3
2024-01-09T09:19:48.969Z,67.3
2024-01-09T09:20:51.335Z,66.9
2024-01-09T09:21:52.667Z,66.9
2024-01-09T09:22:54.620Z,66.4
2024-01-09T09:23:57.996Z,65.8
2024-01-09T09:24:59.753Z,66.5
2024-01-09T09:26:01.012Z,66.1
2024-01-09T09:27:03.922Z,64.7
2024-01-09T09:28:06.261Z,64.3
2024-01-09T09:29:23.844Z,65
2024-01-09T09:30:33.750Z,64.5
2024-01-09T09:31:36.094Z,64.3
2024-01-09T09:32:38.116Z,63.2
2024-01-09T09:33:39.907Z,63.7
2024-01-09T09:34:46.118Z,63.4
2024-01-09T09:35:49.180Z,63.3
2024-01-09T09:36:50.394Z,62.7
2024-01-09T09:37:53.283Z,62.4
2024-01-09T09:38:55.062Z,62.2
2024-01-09T09:39:56.760Z,61.9
2024-01-09T09:40:59.119Z,61.9
2024-01-09T09:42:01.162Z,62.2
2024-01-09T09:43:03.239Z,61.4
2024-01-09T09:44:04.776Z,61.3
2024-01-09T09:45:06.120Z,61
2024-01-09T09:46:12.454Z,61.4
2024-01-09T09:47:13.437Z,61
2024-01-09T09:48:16.122Z,60.6
2024-01-09T09:49:17.582Z,61
2024-01-09T09:50:19.857Z,61.6
2024-01-09T09:51:26.281Z,61.4
2024-01-09T09:52:28.172Z,60.8
2024-01-09T09:53:30.054Z,60.7
2024-01-09T09:54:31.313Z,60.6
2024-01-09T09:55:33.496Z,61.1
2024-01-09T09:56:35.568Z,61.3
2024-01-09T09:57:37.277Z,60.6
2024-01-09T09:58:39.269Z,60.7
2024-01-09T09:59:41.456Z,60.6
2024-01-09T10:00:43.507Z,60.5
2024-01-09T10:01:45.512Z,60.3
2024-01-09T10:02:47.628Z,60.9
2024-01-09T10:03:49.627Z,60.5
2024-01-09T10:04:51.285Z,60.6
2024-01-09T10:05:53.563Z,60.4
2024-01-09T10:06:55.572Z,60
2024-01-09T10:07:57.268Z,59.1
2024-01-09T10:08:59.643Z,59.7
2024-01-09T10:10:01.303Z,59.6
2024-01-09T10:11:03.274Z,59.8
2024-01-09T10:12:05.254Z,58.9
2024-01-09T10:13:07.244Z,59
2024-01-09T10:14:09.269Z,58.2
2024-01-09T10:15:11.683Z,58.3
2024-01-09T10:16:13.277Z,58.3
2024-01-09T10:17:15.448Z,58.1
2024-01-09T10:18:17.862Z,58.1
2024-01-09T10:19:19.694Z,57.8
2024-01-09T10:20:26.000Z,57.9
2024-01-09T10:21:26.970Z,58.6
2024-01-09T10:22:28.971Z,58
2024-01-09T10:23:31.191Z,56.9
2024-01-09T10:24:32.983Z,56.7
2024-01-09T10:25:35.224Z,56.6
2024-01-09T10:26:37.590Z,56.9
2024-01-09T10:27:39.030Z,57.2
2024-01-09T10:28:41.078Z,57.1
2024-01-09T10:29:43.182Z,57.1
2024-01-09T10:30:45.335Z,56.4
2024-01-09T10:31:47.898Z,55.4
2024-01-09T10:32:49.329Z,54.5
2024-01-09T10:33:51.418Z,54.2
2024-01-09T10:34:53.157Z,56.1
2024-01-09T10:35:55.060Z,53.6
2024-01-09T10:36:56.962Z,53
2024-01-09T10:37:58.949Z,53.5
2024-01-09T10:39:01.319Z,54.4
2024-01-09T10:40:03.341Z,54.2
2024-01-09T10:41:04.924Z,54.1
2024-01-09T10:42:07.535Z,53.6
2024-01-09T10:43:09.165Z,53.9
2024-01-09T10:44:10.939Z,52.7
2024-01-09T10:45:12.911Z,53.2
2024-01-09T10:46:14.937Z,52.2
2024-01-09T10:47:17.450Z,52.6
2024-01-09T10:48:19.238Z,52.1
2024-01-09T10:49:24.200Z,53.1
2024-01-09T10:50:25.159Z,51.6
2024-01-09T10:51:26.807Z,49.7
2024-01-09T10:52:28.959Z,50
2024-01-09T10:53:30.816Z,52.9
2024-01-09T10:54:32.778Z,53.4
2024-01-09T10:55:34.805Z,51
2024-01-09T10:56:37.201Z,52
2024-01-09T10:57:38.772Z,54.8
2024-01-09T10:58:40.775Z,52.7
2024-01-09T10:59:43.056Z,48.4
2024-01-09T11:00:45.294Z,47.5
2024-01-09T11:01:46.761Z,44.4
2024-01-09T11:02:49.375Z,40.4
2024-01-09T11:03:50.944Z,38
2024-01-09T11:04:53.006Z,37
2024-01-09T11:05:55.070Z,35.8
2024-01-09T11:06:56.955Z,34.1
2024-01-09T11:07:58.773Z,33.7
2024-01-09T11:09:00.801Z,33.6
2024-01-09T11:10:02.809Z,33.6
2024-01-09T11:11:04.770Z,33
2024-01-09T11:12:07.084Z,33.1
2024-01-09T11:13:08.748Z,32.3
2024-01-09T11:14:10.797Z,31.9
2024-01-09T11:15:12.781Z,32.1
2024-01-09T11:16:14.756Z,32.1
2024-01-09T11:17:17.040Z,31.5
2024-01-09T11:18:19.344Z,31.9
2024-01-09T11:19:22.350Z,32.1
2024-01-09T11:20:23.227Z,30.8
2024-01-09T11:21:24.846Z,31.5
2024-01-09T11:22:26.995Z,31.2
2024-01-09T11:23:29.106Z,31
2024-01-09T11:24:30.856Z,31.4
2024-01-09T11:25:32.820Z,31.1
2024-01-09T11:26:35.273Z,31.8
2024-01-09T11:27:37.356Z,32.1
2024-01-09T11:28:39.020Z,31.8
2024-01-09T11:29:41.079Z,31.5
2024-01-09T11:30:43.139Z,30.8
2024-01-09T11:31:44.856Z,29.7
2024-01-09T11:32:46.970Z,31.7
2024-01-09T11:33:49.394Z,31.2
2024-01-09T11:34:51.057Z,30.8
2024-01-09T11:35:53.130Z,32.1
2024-01-09T11:36:54.838Z,33.5
2024-01-09T11:37:56.998Z,34.2
2024-01-09T11:38:59.010Z,35.8
2024-01-09T11:40:00.842Z,35.5
2024-01-09T11:41:03.021Z,36.8
2024-01-09T11:42:05.428Z,38.5
2024-01-09T11:43:07.107Z,40.5
2024-01-09T11:44:09.474Z,40.3
2024-01-09T11:45:11.501Z,41.1
2024-01-09T11:46:12.818Z,42.4
2024-01-09T11:47:15.209Z,41.9
2024-01-09T11:48:17.486Z,43.7
2024-01-09T11:49:19.785Z,44
2024-01-09T11:50:21.491Z,44.2
2024-01-09T11:51:23.400Z,44.7
2024-01-09T11:52:25.081Z,46.3
2024-01-09T11:53:27.126Z,45.3
2024-01-09T11:54:28.807Z,44.5
2024-01-09T11:55:30.791Z,45.7
2024-01-09T11:56:33.076Z,45.1
2024-01-09T11:57:35.007Z,44.7
2024-01-09T11:58:36.806Z,44.8
2024-01-09T11:59:39.146Z,46.1
2024-01-09T12:00:40.898Z,46
2024-01-09T12:01:42.814Z,46
2024-01-09T12:02:45.016Z,46.5
2024-01-09T12:03:46.770Z,46.6
2024-01-09T12:04:49.435Z,47.7
2024-01-09T12:05:51.157Z,46.8
2024-01-09T12:06:52.900Z,47.3
2024-01-09T12:07:54.786Z,47.2
2024-01-09T12:08:57.090Z,46.2
2024-01-09T12:09:58.794Z,47.2
2024-01-09T12:11:00.789Z,47.4
2024-01-09T12:12:03.632Z,47.4
2024-01-09T12:13:04.782Z,46.6
2024-01-09T12:14:06.792Z,46.5
2024-01-09T12:15:08.789Z,45.8
2024-01-09T12:16:10.765Z,46.4
2024-01-09T12:17:12.768Z,47
2024-01-09T12:18:15.259Z,46.6
2024-01-09T12:19:16.957Z,47.2
2024-01-09T12:20:18.864Z,47.7
2024-01-09T12:21:21.028Z,47.8
2024-01-09T12:22:23.100Z,47.1
2024-01-09T12:23:24.872Z,46.7
2024-01-09T12:24:31.171Z,46.7
2024-01-09T12:25:32.289Z,46.7
2024-01-09T12:26:34.404Z,46.4
2024-01-09T12:27:36.265Z,47.4
2024-01-09T12:28:38.279Z,46.1
2024-01-09T12:29:40.551Z,45.8
2024-01-09T12:30:42.605Z,46.5
2024-01-09T12:31:44.271Z,47.1
2024-01-09T12:32:46.908Z,47.2
2024-01-09T12:33:48.949Z,46.5
2024-01-09T12:34:50.610Z,46.8
2024-01-09T12:35:52.629Z,47.4
2024-01-09T12:36:54.250Z,46.6
2024-01-09T12:37:56.358Z,46.7
2024-01-09T12:38:59.083Z,45.6
2024-01-09T12:40:00.497Z,45.8
2024-01-09T12:41:02.245Z,46
2024-01-09T12:42:04.601Z,45.9
2024-01-09T12:43:06.235Z,46.5
2024-01-09T12:44:08.267Z,45.7
2024-01-09T12:45:10.459Z,45.6
2024-01-09T12:46:12.248Z,45
2024-01-09T12:47:14.240Z,46.3
2024-01-09T12:48:16.702Z,45.2
2024-01-09T12:49:18.703Z,45.3
2024-01-09T12:50:20.760Z,46.1
2024-01-09T12:51:22.540Z,46.3
2024-01-09T12:52:24.243Z,46.2
2024-01-09T12:53:26.592Z,45.8
2024-01-09T12:54:28.218Z,46.1
2024-01-09T12:55:30.232Z,47.7
2024-01-09T12:56:32.296Z,47
2024-01-09T12:57:34.476Z,46.8
2024-01-09T12:58:36.536Z,45.8
2024-01-09T12:59:38.606Z,46.4
2024-01-09T13:00:40.356Z,46.1
2024-01-09T13:01:42.391Z,46.1
2024-01-09T13:02:44.486Z,46.3
2024-01-09T13:03:46.710Z,46.1
2024-01-09T13:04:48.344Z,46.3
2024-01-09T13:05:50.643Z,46
2024-01-09T13:06:52.419Z,45.5
2024-01-09T13:07:54.251Z,45.8
2024-01-09T13:08:56.528Z,46.9
2024-01-09T13:09:58.321Z,46.1
2024-01-09T13:11:01.410Z,45.9
2024-01-09T13:12:02.349Z,46.3
2024-01-09T13:13:07.141Z,46.2
2024-01-09T13:14:09.761Z,43.9
2024-01-09T13:15:11.822Z,45.4
2024-01-09T13:16:12.329Z,46.3
2024-01-09T13:17:15.631Z,45.5
2024-01-09T13:18:19.373Z,44.9
2024-01-09T13:19:21.202Z,45.2
2024-01-09T13:20:22.477Z,46
2024-01-09T13:21:24.218Z,44.1
2024-01-09T13:23:45.832Z,44.9
2024-01-09T13:24:51.253Z,45.7
2024-01-09T13:25:52.901Z,44.6
2024-01-09T13:26:54.911Z,44.6
2024-01-09T13:27:56.876Z,44.8
2024-01-09T13:31:12.549Z,44.4
2024-01-09T13:32:14.770Z,46.1
2024-01-09T13:33:16.346Z,44.5
2024-01-09T13:34:18.405Z,43.5
2024-01-09T13:35:20.455Z,44
2024-01-09T13:36:23.946Z,43.5
2024-01-09T13:37:24.507Z,43.5
2024-01-09T13:38:26.290Z,43.6
2024-01-09T13:39:28.268Z,43.8
2024-01-09T13:40:30.379Z,44.1
2024-01-09T13:41:33.025Z,42.8
2024-01-09T13:42:35.319Z,44.1
2024-01-09T13:43:37.167Z,43.7
2024-01-09T13:44:39.463Z,43.9
2024-01-09T13:45:41.484Z,43.2
2024-01-09T13:46:42.950Z,43
2024-01-09T13:47:45.355Z,42.3
2024-01-09T13:48:46.557Z,42.8
2024-01-09T13:51:52.845Z,42
2024-01-09T13:52:55.589Z,41.8
2024-01-09T13:53:57.598Z,42.6
2024-01-09T13:54:59.630Z,41.2
2024-01-09T13:56:01.878Z,42
2024-01-09T13:57:03.565Z,41.5
2024-01-09T13:58:08.882Z,42.2
2024-01-09T13:59:09.887Z,42
2024-01-09T14:00:11.608Z,41.6
2024-01-09T14:01:13.344Z,42.3